sensor_id;sensor_type;location;lat;lon;timestamp;P1;durP1;ratioP1;P2;durP2;ratioP2
8683;SDS011;4379;59.744;18.206;2023-07-31T07:23:23;5.65;;;5.40;;
8683;SDS011;4379;59.744;18.206;2023-07-31T07:25:53;6.25;;;5.85;;
8683;SDS011;4379;59.744;18.206;2023-07-31T07:28:21;5.78;;;5.38;;
8683;SDS011;4379;59.744;18.206;2023-07-31T07:30:52;5.90;;;5.60;;
8683;SDS011;4379;59.744;18.206;2023-07-31T07:33:21;5.60;;;5.40;;
8683;SDS011;4379;59.744;18.206;2023-07-31T07:35:50;6.03;;;5.63;;
8683;SDS011;4379;59.744;18.206;2023-07-31T07:38:17;5.13;;;4.93;;
8683;SDS011;4379;59.744;18.206;2023-07-31T07:40:46;4.88;;;4.68;;
8683;SDS011;4379;59.744;18.206;2023-07-31T07:43:17;5.65;;;5.28;;
8683;SDS011;4379;59.744;18.206;2023-07-31T07:45:44;4.97;;;4.78;;
8683;SDS011;4379;59.744;18.206;2023-07-31T07:48:11;5.00;;;4.70;;
8683;SDS011;4379;59.744;18.206;2023-07-31T07:50:39;5.43;;;5.10;;
8683;SDS011;4379;59.744;18.206;2023-07-31T07:53:07;4.85;;;4.65;;
8683;SDS011;4379;59.744;18.206;2023-07-31T07:55:35;4.72;;;4.63;;
8683;SDS011;4379;59.744;18.206;2023-07-31T07:58:02;4.50;;;4.30;;
8683;SDS011;4379;59.744;18.206;2023-07-31T08:00:30;5.10;;;4.90;;
8683;SDS011;4379;59.744;18.206;2023-07-31T08:02:57;5.22;;;4.93;;
8683;SDS011;4379;59.744;18.206;2023-07-31T08:05:25;4.78;;;4.57;;
8683;SDS011;4379;59.744;18.206;2023-07-31T08:07:53;4.75;;;4.55;;
8683;SDS011;4379;59.744;18.206;2023-07-31T08:10:20;4.70;;;4.45;;
8683;SDS011;4379;59.744;18.206;2023-07-31T08:12:48;4.90;;;4.70;;
8683;SDS011;4379;59.744;18.206;2023-07-31T08:15:15;4.90;;;4.60;;
8683;SDS011;4379;59.744;18.206;2023-07-31T08:17:43;4.85;;;4.43;;
8683;SDS011;4379;59.744;18.206;2023-07-31T08:20:10;4.45;;;4.30;;
8683;SDS011;4379;59.744;18.206;2023-07-31T08:22:38;3.92;;;3.83;;
8683;SDS011;4379;59.744;18.206;2023-07-31T08:25:06;4.45;;;4.25;;
8683;SDS011;4379;59.744;18.206;2023-07-31T08:27:34;4.68;;;4.47;;
8683;SDS011;4379;59.744;18.206;2023-07-31T08:30:02;4.18;;;3.97;;
8683;SDS011;4379;59.744;18.206;2023-07-31T08:32:29;4.85;;;4.65;;
8683;SDS011;4379;59.744;18.206;2023-07-31T08:34:57;5.30;;;4.82;;
8683;SDS011;4379;59.744;18.206;2023-07-31T08:37:25;5.53;;;5.15;;
8683;SDS011;4379;59.744;18.206;2023-07-31T08:39:53;6.07;;;5.68;;
8683;SDS011;4379;59.744;18.206;2023-07-31T11:21:58;2.58;;;2.08;;
8683;SDS011;4379;59.744;18.206;2023-07-31T11:24:26;2.03;;;1.92;;
8683;SDS011;4379;59.744;18.206;2023-07-31T11:26:54;5.47;;;1.95;;
8683;SDS011;4379;59.744;18.206;2023-07-31T11:29:23;3.08;;;2.50;;
8683;SDS011;4379;59.744;18.206;2023-07-31T11:31:55;2.65;;;2.45;;
8683;SDS011;4379;59.744;18.206;2023-07-31T11:34:23;1.90;;;1.80;;
8683;SDS011;4379;59.744;18.206;2023-07-31T11:36:55;1.98;;;1.88;;
8683;SDS011;4379;59.744;18.206;2023-07-31T11:39:22;2.50;;;2.05;;
8683;SDS011;4379;59.744;18.206;2023-07-31T11:41:50;1.75;;;1.65;;
8683;SDS011;4379;59.744;18.206;2023-07-31T11:44:18;1.80;;;1.65;;
8683;SDS011;4379;59.744;18.206;2023-07-31T11:46:56;1.83;;;1.73;;
8683;SDS011;4379;59.744;18.206;2023-07-31T11:49:25;1.90;;;1.70;;
8683;SDS011;4379;59.744;18.206;2023-07-31T11:51:53;2.10;;;1.90;;
8683;SDS011;4379;59.744;18.206;2023-07-31T11:54:21;1.90;;;1.63;;
8683;SDS011;4379;59.744;18.206;2023-07-31T11:56:49;1.60;;;1.50;;
8683;SDS011;4379;59.744;18.206;2023-07-31T11:59:17;1.83;;;1.58;;
8683;SDS011;4379;59.744;18.206;2023-07-31T12:01:45;2.60;;;1.80;;
8683;SDS011;4379;59.744;18.206;2023-07-31T12:04:13;2.60;;;1.90;;
8683;SDS011;4379;59.744;18.206;2023-07-31T12:11:03;2.00;;;1.90;;
8683;SDS011;4379;59.744;18.206;2023-07-31T12:13:32;1.70;;;1.60;;
8683;SDS011;4379;59.744;18.206;2023-07-31T12:16:03;2.13;;;2.00;;
8683;SDS011;4379;59.744;18.206;2023-07-31T12:18:37;2.20;;;2.00;;
8683;SDS011;4379;59.744;18.206;2023-07-31T12:21:09;1.98;;;1.85;;
8683;SDS011;4379;59.744;18.206;2023-07-31T12:23:40;1.83;;;1.70;;
8683;SDS011;4379;59.744;18.206;2023-07-31T12:30:28;2.63;;;1.65;;
8683;SDS011;4379;59.744;18.206;2023-07-31T12:32:56;2.00;;;1.80;;
8683;SDS011;4379;59.744;18.206;2023-07-31T12:35:24;2.55;;;1.60;;
8683;SDS011;4379;59.744;18.206;2023-07-31T12:37:54;1.67;;;1.50;;
8683;SDS011;4379;59.744;18.206;2023-07-31T12:40:22;1.83;;;1.73;;
8683;SDS011;4379;59.744;18.206;2023-07-31T12:43:00;2.83;;;2.15;;
8683;SDS011;4379;59.744;18.206;2023-07-31T12:45:29;2.75;;;2.05;;
8683;SDS011;4379;59.744;18.206;2023-07-31T12:47:58;2.72;;;1.88;;
8683;SDS011;4379;59.744;18.206;2023-07-31T12:50:26;2.88;;;2.00;;
8683;SDS011;4379;59.744;18.206;2023-07-31T12:52:56;2.03;;;1.83;;
8683;SDS011;4379;59.744;18.206;2023-07-31T12:55:24;1.80;;;1.70;;
8683;SDS011;4379;59.744;18.206;2023-07-31T12:57:51;2.53;;;2.00;;
8683;SDS011;4379;59.744;18.206;2023-07-31T13:00:20;1.90;;;1.80;;
8683;SDS011;4379;59.744;18.206;2023-07-31T13:02:48;1.70;;;1.55;;
8683;SDS011;4379;59.744;18.206;2023-07-31T13:05:16;1.85;;;1.67;;
8683;SDS011;4379;59.744;18.206;2023-07-31T13:07:44;2.40;;;2.13;;
8683;SDS011;4379;59.744;18.206;2023-07-31T13:10:12;1.88;;;1.73;;
8683;SDS011;4379;59.744;18.206;2023-07-31T13:12:40;2.35;;;1.75;;
8683;SDS011;4379;59.744;18.206;2023-07-31T13:15:08;1.70;;;1.60;;
8683;SDS011;4379;59.744;18.206;2023-07-31T13:17:36;1.90;;;1.80;;
8683;SDS011;4379;59.744;18.206;2023-07-31T13:20:04;2.20;;;1.85;;
8683;SDS011;4379;59.744;18.206;2023-07-31T13:22:32;2.17;;;1.67;;
8683;SDS011;4379;59.744;18.206;2023-07-31T13:24:59;3.63;;;1.90;;
8683;SDS011;4379;59.744;18.206;2023-07-31T13:27:27;2.22;;;2.03;;
8683;SDS011;4379;59.744;18.206;2023-07-31T13:29:54;3.38;;;2.22;;
8683;SDS011;4379;59.744;18.206;2023-07-31T13:32:22;3.20;;;2.05;;
8683;SDS011;4379;59.744;18.206;2023-07-31T13:34:51;2.58;;;1.95;;
8683;SDS011;4379;59.744;18.206;2023-07-31T13:37:18;2.80;;;1.90;;
8683;SDS011;4379;59.744;18.206;2023-07-31T13:39:46;2.05;;;1.73;;
8683;SDS011;4379;59.744;18.206;2023-07-31T13:42:14;2.58;;;2.38;;
8683;SDS011;4379;59.744;18.206;2023-07-31T13:44:41;2.10;;;2.00;;
8683;SDS011;4379;59.744;18.206;2023-07-31T13:47:09;4.35;;;2.30;;
8683;SDS011;4379;59.744;18.206;2023-07-31T13:49:37;2.60;;;2.10;;
8683;SDS011;4379;59.744;18.206;2023-07-31T13:52:05;2.55;;;2.15;;
8683;SDS011;4379;59.744;18.206;2023-07-31T13:54:33;2.38;;;2.17;;
8683;SDS011;4379;59.744;18.206;2023-07-31T13:57:01;2.47;;;2.00;;
8683;SDS011;4379;59.744;18.206;2023-07-31T13:59:29;2.35;;;2.25;;
8683;SDS011;4379;59.744;18.206;2023-07-31T14:01:57;2.92;;;2.15;;
8683;SDS011;4379;59.744;18.206;2023-07-31T14:04:24;1.95;;;1.85;;
8683;SDS011;4379;59.744;18.206;2023-07-31T14:06:52;3.58;;;2.10;;
8683;SDS011;4379;59.744;18.206;2023-07-31T14:09:19;1.95;;;1.77;;
8683;SDS011;4379;59.744;18.206;2023-07-31T14:11:47;2.67;;;2.10;;
8683;SDS011;4379;59.744;18.206;2023-07-31T14:14:14;1.98;;;1.88;;
8683;SDS011;4379;59.744;18.206;2023-07-31T14:16:44;2.10;;;1.70;;
8683;SDS011;4379;59.744;18.206;2023-07-31T14:19:12;1.98;;;1.75;;
8683;SDS011;4379;59.744;18.206;2023-07-31T14:21:40;3.92;;;1.77;;
8683;SDS011;4379;59.744;18.206;2023-07-31T14:24:10;2.05;;;1.90;;
8683;SDS011;4379;59.744;18.206;2023-07-31T14:26:38;3.10;;;1.92;;
8683;SDS011;4379;59.744;18.206;2023-07-31T14:29:06;1.98;;;1.88;;
8683;SDS011;4379;59.744;18.206;2023-07-31T14:31:34;2.95;;;1.88;;
8683;SDS011;4379;59.744;18.206;2023-07-31T14:34:02;1.85;;;1.75;;
8683;SDS011;4379;59.744;18.206;2023-07-31T14:36:30;2.25;;;1.92;;
8683;SDS011;4379;59.744;18.206;2023-07-31T14:38:58;1.90;;;1.80;;
8683;SDS011;4379;59.744;18.206;2023-07-31T14:41:25;2.35;;;1.80;;
8683;SDS011;4379;59.744;18.206;2023-07-31T14:43:53;2.00;;;1.90;;
8683;SDS011;4379;59.744;18.206;2023-07-31T14:46:20;1.92;;;1.73;;
8683;SDS011;4379;59.744;18.206;2023-07-31T14:48:48;2.85;;;2.05;;
8683;SDS011;4379;59.744;18.206;2023-07-31T14:51:16;2.22;;;2.08;;
8683;SDS011;4379;59.744;18.206;2023-07-31T14:53:44;3.72;;;2.10;;
8683;SDS011;4379;59.744;18.206;2023-07-31T14:56:13;2.70;;;1.63;;
8683;SDS011;4379;59.744;18.206;2023-07-31T14:58:41;2.10;;;1.92;;
8683;SDS011;4379;59.744;18.206;2023-07-31T15:01:09;2.30;;;1.77;;
8683;SDS011;4379;59.744;18.206;2023-07-31T15:03:36;2.42;;;1.63;;
8683;SDS011;4379;59.744;18.206;2023-07-31T15:06:04;2.53;;;1.80;;
8683;SDS011;4379;59.744;18.206;2023-07-31T15:08:34;1.90;;;1.80;;
8683;SDS011;4379;59.744;18.206;2023-07-31T15:11:03;2.10;;;2.00;;
8683;SDS011;4379;59.744;18.206;2023-07-31T15:13:31;2.13;;;1.63;;
8683;SDS011;4379;59.744;18.206;2023-07-31T15:15:59;1.92;;;1.83;;
8683;SDS011;4379;59.744;18.206;2023-07-31T15:18:26;2.85;;;1.70;;
8683;SDS011;4379;59.744;18.206;2023-07-31T15:20:54;1.70;;;1.58;;
8683;SDS011;4379;59.744;18.206;2023-07-31T15:23:21;1.80;;;1.70;;
8683;SDS011;4379;59.744;18.206;2023-07-31T15:25:50;3.40;;;2.08;;
8683;SDS011;4379;59.744;18.206;2023-07-31T15:28:18;2.72;;;1.70;;
8683;SDS011;4379;59.744;18.206;2023-07-31T15:30:46;1.90;;;1.80;;
8683;SDS011;4379;59.744;18.206;2023-07-31T15:33:14;3.45;;;1.75;;
8683;SDS011;4379;59.744;18.206;2023-07-31T15:35:42;2.13;;;1.70;;
8683;SDS011;4379;59.744;18.206;2023-07-31T15:38:10;1.80;;;1.70;;
8683;SDS011;4379;59.744;18.206;2023-07-31T15:40:39;1.70;;;1.60;;
8683;SDS011;4379;59.744;18.206;2023-07-31T15:43:06;2.45;;;1.75;;
8683;SDS011;4379;59.744;18.206;2023-07-31T15:45:34;1.67;;;1.58;;
8683;SDS011;4379;59.744;18.206;2023-07-31T15:48:02;1.98;;;1.65;;
8683;SDS011;4379;59.744;18.206;2023-07-31T15:50:29;2.72;;;1.70;;
8683;SDS011;4379;59.744;18.206;2023-07-31T15:52:57;1.60;;;1.50;;
8683;SDS011;4379;59.744;18.206;2023-07-31T15:55:27;2.30;;;1.67;;
8683;SDS011;4379;59.744;18.206;2023-07-31T15:57:55;1.90;;;1.70;;
8683;SDS011;4379;59.744;18.206;2023-07-31T16:00:22;1.80;;;1.70;;
8683;SDS011;4379;59.744;18.206;2023-07-31T16:02:50;1.90;;;1.80;;
8683;SDS011;4379;59.744;18.206;2023-07-31T16:05:17;1.80;;;1.70;;
8683;SDS011;4379;59.744;18.206;2023-07-31T16:07:45;2.00;;;1.90;;
8683;SDS011;4379;59.744;18.206;2023-07-31T16:10:13;2.35;;;1.90;;
8683;SDS011;4379;59.744;18.206;2023-07-31T16:12:40;2.38;;;1.80;;
8683;SDS011;4379;59.744;18.206;2023-07-31T16:15:08;2.53;;;2.00;;
8683;SDS011;4379;59.744;18.206;2023-07-31T16:17:36;2.80;;;1.65;;
8683;SDS011;4379;59.744;18.206;2023-07-31T16:20:04;1.80;;;1.70;;
8683;SDS011;4379;59.744;18.206;2023-07-31T16:22:32;2.38;;;1.60;;
8683;SDS011;4379;59.744;18.206;2023-07-31T16:25:00;1.85;;;1.70;;
8683;SDS011;4379;59.744;18.206;2023-07-31T16:27:28;1.52;;;1.42;;
8683;SDS011;4379;59.744;18.206;2023-07-31T16:29:56;1.58;;;1.58;;
8683;SDS011;4379;59.744;18.206;2023-07-31T16:32:27;1.80;;;1.70;;
8683;SDS011;4379;59.744;18.206;2023-07-31T16:34:55;2.50;;;1.70;;
8683;SDS011;4379;59.744;18.206;2023-07-31T16:37:22;1.90;;;1.77;;
8683;SDS011;4379;59.744;18.206;2023-07-31T16:39:50;2.15;;;1.83;;
8683;SDS011;4379;59.744;18.206;2023-07-31T16:42:19;1.60;;;1.50;;
8683;SDS011;4379;59.744;18.206;2023-07-31T16:44:48;2.53;;;1.70;;
8683;SDS011;4379;59.744;18.206;2023-07-31T16:47:16;1.70;;;1.65;;
8683;SDS011;4379;59.744;18.206;2023-07-31T16:49:43;3.10;;;1.73;;
8683;SDS011;4379;59.744;18.206;2023-07-31T16:52:11;2.00;;;1.90;;
8683;SDS011;4379;59.744;18.206;2023-07-31T16:54:38;2.00;;;1.90;;
8683;SDS011;4379;59.744;18.206;2023-07-31T16:57:06;1.98;;;1.88;;
8683;SDS011;4379;59.744;18.206;2023-07-31T16:59:34;1.90;;;1.80;;
8683;SDS011;4379;59.744;18.206;2023-07-31T17:02:01;1.80;;;1.70;;
8683;SDS011;4379;59.744;18.206;2023-07-31T17:04:30;1.80;;;1.70;;
8683;SDS011;4379;59.744;18.206;2023-07-31T17:06:58;2.58;;;2.10;;
8683;SDS011;4379;59.744;18.206;2023-07-31T17:09:26;2.22;;;2.03;;
8683;SDS011;4379;59.744;18.206;2023-07-31T17:11:53;2.40;;;2.20;;
8683;SDS011;4379;59.744;18.206;2023-07-31T17:14:21;2.08;;;1.98;;
8683;SDS011;4379;59.744;18.206;2023-07-31T17:16:49;2.03;;;1.92;;
8683;SDS011;4379;59.744;18.206;2023-07-31T17:19:16;2.40;;;1.98;;
8683;SDS011;4379;59.744;18.206;2023-07-31T17:21:43;2.10;;;2.00;;
8683;SDS011;4379;59.744;18.206;2023-07-31T17:24:11;2.35;;;2.22;;
8683;SDS011;4379;59.744;18.206;2023-07-31T17:26:40;2.20;;;2.00;;
8683;SDS011;4379;59.744;18.206;2023-07-31T17:29:10;2.10;;;2.00;;
8683;SDS011;4379;59.744;18.206;2023-07-31T17:31:43;2.00;;;1.90;;
8683;SDS011;4379;59.744;18.206;2023-07-31T17:34:11;2.13;;;2.03;;
8683;SDS011;4379;59.744;18.206;2023-07-31T17:36:38;2.45;;;2.00;;
8683;SDS011;4379;59.744;18.206;2023-07-31T17:39:06;2.83;;;2.50;;
8683;SDS011;4379;59.744;18.206;2023-07-31T17:41:33;2.28;;;2.17;;
8683;SDS011;4379;59.744;18.206;2023-07-31T17:44:01;2.83;;;2.45;;
8683;SDS011;4379;59.744;18.206;2023-07-31T17:46:28;2.30;;;2.20;;
8683;SDS011;4379;59.744;18.206;2023-07-31T17:48:56;2.63;;;2.42;;
8683;SDS011;4379;59.744;18.206;2023-07-31T17:51:25;2.00;;;2.00;;
8683;SDS011;4379;59.744;18.206;2023-07-31T17:53:53;2.58;;;2.30;;
8683;SDS011;4379;59.744;18.206;2023-07-31T17:56:20;3.03;;;2.85;;
8683;SDS011;4379;59.744;18.206;2023-07-31T17:58:48;2.60;;;2.40;;
8683;SDS011;4379;59.744;18.206;2023-07-31T18:01:16;2.55;;;2.45;;
8683;SDS011;4379;59.744;18.206;2023-07-31T18:03:43;2.92;;;2.72;;
8683;SDS011;4379;59.744;18.206;2023-07-31T18:06:11;3.00;;;2.80;;
8683;SDS011;4379;59.744;18.206;2023-07-31T18:08:38;3.30;;;3.00;;
8683;SDS011;4379;59.744;18.206;2023-07-31T18:11:06;3.05;;;2.75;;
8683;SDS011;4379;59.744;18.206;2023-07-31T18:13:34;2.60;;;2.50;;
8683;SDS011;4379;59.744;18.206;2023-07-31T18:16:02;2.60;;;2.50;;
8683;SDS011;4379;59.744;18.206;2023-07-31T18:18:31;3.00;;;2.65;;
8683;SDS011;4379;59.744;18.206;2023-07-31T18:20:58;4.82;;;3.15;;
8683;SDS011;4379;59.744;18.206;2023-07-31T18:23:28;2.75;;;2.55;;
8683;SDS011;4379;59.744;18.206;2023-07-31T18:25:55;2.75;;;2.63;;
8683;SDS011;4379;59.744;18.206;2023-07-31T18:28:23;3.65;;;2.58;;
8683;SDS011;4379;59.744;18.206;2023-07-31T18:30:56;2.78;;;2.58;;
8683;SDS011;4379;59.744;18.206;2023-07-31T18:33:30;3.60;;;3.28;;
8683;SDS011;4379;59.744;18.206;2023-07-31T18:36:03;3.88;;;3.58;;
8683;SDS011;4379;59.744;18.206;2023-07-31T18:38:31;4.80;;;3.05;;
8683;SDS011;4379;59.744;18.206;2023-07-31T18:40:59;3.70;;;3.35;;
8683;SDS011;4379;59.744;18.206;2023-07-31T18:43:27;3.10;;;3.00;;
8683;SDS011;4379;59.744;18.206;2023-07-31T18:45:54;3.65;;;3.38;;
8683;SDS011;4379;59.744;18.206;2023-07-31T18:48:22;3.97;;;3.78;;
8683;SDS011;4379;59.744;18.206;2023-07-31T18:50:50;4.30;;;3.90;;
8683;SDS011;4379;59.744;18.206;2023-07-31T18:53:18;3.70;;;3.40;;
8683;SDS011;4379;59.744;18.206;2023-07-31T18:55:47;4.25;;;3.85;;
8683;SDS011;4379;59.744;18.206;2023-07-31T18:58:15;3.85;;;3.42;;
8683;SDS011;4379;59.744;18.206;2023-07-31T19:00:43;4.22;;;3.92;;
8683;SDS011;4379;59.744;18.206;2023-07-31T19:03:11;4.07;;;3.78;;
8683;SDS011;4379;59.744;18.206;2023-07-31T19:05:39;5.78;;;3.50;;
8683;SDS011;4379;59.744;18.206;2023-07-31T19:08:07;3.90;;;3.70;;
8683;SDS011;4379;59.744;18.206;2023-07-31T19:10:35;4.25;;;3.92;;
8683;SDS011;4379;59.744;18.206;2023-07-31T19:13:04;4.40;;;4.00;;
8683;SDS011;4379;59.744;18.206;2023-07-31T19:15:33;4.22;;;4.00;;
8683;SDS011;4379;59.744;18.206;2023-07-31T19:18:01;5.60;;;4.05;;
8683;SDS011;4379;59.744;18.206;2023-07-31T19:20:32;3.97;;;3.55;;
8683;SDS011;4379;59.744;18.206;2023-07-31T19:23:01;4.30;;;4.10;;
8683;SDS011;4379;59.744;18.206;2023-07-31T19:25:28;4.97;;;4.22;;
8683;SDS011;4379;59.744;18.206;2023-07-31T19:27:56;5.25;;;4.90;;
8683;SDS011;4379;59.744;18.206;2023-07-31T19:30:24;4.10;;;3.90;;
8683;SDS011;4379;59.744;18.206;2023-07-31T19:32:52;5.15;;;4.65;;
8683;SDS011;4379;59.744;18.206;2023-07-31T19:35:22;4.57;;;4.28;;
8683;SDS011;4379;59.744;18.206;2023-07-31T19:37:51;4.72;;;4.32;;
8683;SDS011;4379;59.744;18.206;2023-07-31T19:40:19;4.68;;;4.28;;
8683;SDS011;4379;59.744;18.206;2023-07-31T19:42:48;5.60;;;5.20;;
8683;SDS011;4379;59.744;18.206;2023-07-31T19:45:16;5.63;;;5.10;;
8683;SDS011;4379;59.744;18.206;2023-07-31T19:47:43;5.82;;;5.32;;
8683;SDS011;4379;59.744;18.206;2023-07-31T19:50:12;5.70;;;5.20;;
8683;SDS011;4379;59.744;18.206;2023-07-31T19:52:39;6.07;;;5.57;;
8683;SDS011;4379;59.744;18.206;2023-07-31T19:55:08;5.55;;;5.07;;
8683;SDS011;4379;59.744;18.206;2023-07-31T19:57:36;5.80;;;5.30;;
8683;SDS011;4379;59.744;18.206;2023-07-31T20:00:04;5.40;;;5.15;;
8683;SDS011;4379;59.744;18.206;2023-07-31T20:02:32;5.15;;;4.78;;
8683;SDS011;4379;59.744;18.206;2023-07-31T20:05:01;5.30;;;4.80;;
8683;SDS011;4379;59.744;18.206;2023-07-31T20:07:29;5.35;;;4.70;;
8683;SDS011;4379;59.744;18.206;2023-07-31T20:09:56;5.20;;;4.80;;
8683;SDS011;4379;59.744;18.206;2023-07-31T20:12:26;5.47;;;4.72;;
8683;SDS011;4379;59.744;18.206;2023-07-31T20:14:54;7.75;;;5.18;;
8683;SDS011;4379;59.744;18.206;2023-07-31T20:17:22;7.70;;;4.75;;
8683;SDS011;4379;59.744;18.206;2023-07-31T20:19:54;4.55;;;4.32;;
8683;SDS011;4379;59.744;18.206;2023-07-31T20:22:22;5.65;;;4.45;;
8683;SDS011;4379;59.744;18.206;2023-07-31T20:24:50;7.18;;;5.25;;
8683;SDS011;4379;59.744;18.206;2023-07-31T20:27:18;5.60;;;5.20;;
8683;SDS011;4379;59.744;18.206;2023-07-31T20:29:48;6.03;;;5.55;;
8683;SDS011;4379;59.744;18.206;2023-07-31T20:32:16;5.03;;;4.70;;
8683;SDS011;4379;59.744;18.206;2023-07-31T20:34:44;6.82;;;4.82;;
8683;SDS011;4379;59.744;18.206;2023-07-31T20:37:12;5.07;;;4.68;;
8683;SDS011;4379;59.744;18.206;2023-07-31T20:39:41;4.70;;;4.40;;
8683;SDS011;4379;59.744;18.206;2023-07-31T20:42:08;5.00;;;4.70;;
8683;SDS011;4379;59.744;18.206;2023-07-31T20:44:41;4.47;;;4.05;;
8683;SDS011;4379;59.744;18.206;2023-07-31T20:47:10;4.47;;;4.15;;
8683;SDS011;4379;59.744;18.206;2023-07-31T20:49:37;5.20;;;4.05;;
8683;SDS011;4379;59.744;18.206;2023-07-31T20:52:05;4.10;;;3.80;;
8683;SDS011;4379;59.744;18.206;2023-07-31T20:54:33;3.92;;;3.63;;
8683;SDS011;4379;59.744;18.206;2023-07-31T20:57:00;4.05;;;3.75;;
8683;SDS011;4379;59.744;18.206;2023-07-31T20:59:28;3.70;;;3.50;;
8683;SDS011;4379;59.744;18.206;2023-07-31T21:01:55;4.20;;;4.00;;
8683;SDS011;4379;59.744;18.206;2023-07-31T21:04:23;3.55;;;3.35;;
8683;SDS011;4379;59.744;18.206;2023-07-31T21:06:50;4.60;;;3.63;;
8683;SDS011;4379;59.744;18.206;2023-07-31T21:09:18;3.38;;;3.22;;
8683;SDS011;4379;59.744;18.206;2023-07-31T21:11:45;3.85;;;3.42;;
8683;SDS011;4379;59.744;18.206;2023-07-31T21:14:12;4.05;;;3.65;;
8683;SDS011;4379;59.744;18.206;2023-07-31T21:16:40;5.35;;;4.05;;
8683;SDS011;4379;59.744;18.206;2023-07-31T21:19:08;6.72;;;4.50;;
8683;SDS011;4379;59.744;18.206;2023-07-31T21:21:35;5.40;;;5.00;;
8683;SDS011;4379;59.744;18.206;2023-07-31T21:24:03;5.25;;;4.88;;
8683;SDS011;4379;59.744;18.206;2023-07-31T21:26:30;5.82;;;5.32;;
8683;SDS011;4379;59.744;18.206;2023-07-31T21:28:58;6.30;;;5.60;;
8683;SDS011;4379;59.744;18.206;2023-07-31T21:31:28;6.45;;;5.95;;
8683;SDS011;4379;59.744;18.206;2023-07-31T21:33:55;5.82;;;5.38;;
8683;SDS011;4379;59.744;18.206;2023-07-31T21:36:22;6.25;;;5.65;;
8683;SDS011;4379;59.744;18.206;2023-07-31T21:38:50;6.78;;;6.10;;
8683;SDS011;4379;59.744;18.206;2023-07-31T21:41:17;7.47;;;6.30;;
8683;SDS011;4379;59.744;18.206;2023-07-31T21:43:45;8.05;;;5.57;;
8683;SDS011;4379;59.744;18.206;2023-07-31T21:46:12;6.13;;;5.65;;
8683;SDS011;4379;59.744;18.206;2023-07-31T21:48:40;6.25;;;5.75;;
8683;SDS011;4379;59.744;18.206;2023-07-31T21:51:07;6.72;;;5.13;;
8683;SDS011;4379;59.744;18.206;2023-07-31T21:53:37;6.15;;;5.55;;
8683;SDS011;4379;59.744;18.206;2023-07-31T21:56:05;6.47;;;5.57;;
8683;SDS011;4379;59.744;18.206;2023-07-31T21:58:32;7.22;;;5.90;;
8683;SDS011;4379;59.744;18.206;2023-07-31T22:00:59;6.47;;;5.82;;
8683;SDS011;4379;59.744;18.206;2023-07-31T22:03:27;6.07;;;5.60;;
8683;SDS011;4379;59.744;18.206;2023-07-31T22:05:54;5.72;;;5.30;;
8683;SDS011;4379;59.744;18.206;2023-07-31T22:08:22;6.35;;;5.25;;
8683;SDS011;4379;59.744;18.206;2023-07-31T22:10:49;6.03;;;5.53;;
8683;SDS011;4379;59.744;18.206;2023-07-31T22:13:17;5.72;;;5.20;;
8683;SDS011;4379;59.744;18.206;2023-07-31T22:15:44;5.38;;;5.00;;
8683;SDS011;4379;59.744;18.206;2023-07-31T22:18:14;6.25;;;5.60;;
8683;SDS011;4379;59.744;18.206;2023-07-31T22:20:41;5.47;;;5.13;;
8683;SDS011;4379;59.744;18.206;2023-07-31T22:23:14;4.85;;;4.55;;
8683;SDS011;4379;59.744;18.206;2023-07-31T22:25:42;6.80;;;4.53;;
8683;SDS011;4379;59.744;18.206;2023-07-31T22:28:09;5.38;;;4.50;;
8683;SDS011;4379;59.744;18.206;2023-07-31T22:30:46;5.60;;;4.32;;
8683;SDS011;4379;59.744;18.206;2023-07-31T22:33:14;4.47;;;4.13;;
8683;SDS011;4379;59.744;18.206;2023-07-31T22:35:42;4.95;;;4.50;;
8683;SDS011;4379;59.744;18.206;2023-07-31T22:38:09;4.53;;;4.07;;
8683;SDS011;4379;59.744;18.206;2023-07-31T22:40:36;4.65;;;4.32;;
8683;SDS011;4379;59.744;18.206;2023-07-31T22:43:04;4.70;;;4.40;;
8683;SDS011;4379;59.744;18.206;2023-07-31T22:45:31;4.43;;;3.67;;
8683;SDS011;4379;59.744;18.206;2023-07-31T22:47:59;5.70;;;4.00;;
8683;SDS011;4379;59.744;18.206;2023-07-31T22:50:26;3.60;;;3.35;;
8683;SDS011;4379;59.744;18.206;2023-07-31T22:52:54;3.83;;;3.53;;
8683;SDS011;4379;59.744;18.206;2023-07-31T22:55:22;3.97;;;3.58;;
8683;SDS011;4379;59.744;18.206;2023-07-31T22:57:50;4.22;;;3.38;;
8683;SDS011;4379;59.744;18.206;2023-07-31T23:00:17;7.10;;;3.80;;
8683;SDS011;4379;59.744;18.206;2023-07-31T23:02:45;3.63;;;3.33;;
8683;SDS011;4379;59.744;18.206;2023-07-31T23:05:12;3.83;;;3.47;;
8683;SDS011;4379;59.744;18.206;2023-07-31T23:07:40;4.22;;;3.90;;
8683;SDS011;4379;59.744;18.206;2023-07-31T23:10:08;4.00;;;3.80;;
8683;SDS011;4379;59.744;18.206;2023-07-31T23:12:36;4.18;;;3.78;;
8683;SDS011;4379;59.744;18.206;2023-07-31T23:15:03;4.60;;;3.70;;
8683;SDS011;4379;59.744;18.206;2023-07-31T23:17:31;5.70;;;3.58;;
8683;SDS011;4379;59.744;18.206;2023-07-31T23:19:59;6.93;;;4.32;;
8683;SDS011;4379;59.744;18.206;2023-07-31T23:22:26;8.30;;;4.03;;
8683;SDS011;4379;59.744;18.206;2023-07-31T23:24:54;6.15;;;3.65;;
8683;SDS011;4379;59.744;18.206;2023-07-31T23:27:22;4.80;;;4.00;;
8683;SDS011;4379;59.744;18.206;2023-07-31T23:29:49;4.93;;;3.83;;
8683;SDS011;4379;59.744;18.206;2023-07-31T23:32:17;3.75;;;3.35;;
8683;SDS011;4379;59.744;18.206;2023-07-31T23:34:44;3.35;;;3.05;;
8683;SDS011;4379;59.744;18.206;2023-07-31T23:37:12;4.65;;;4.10;;
8683;SDS011;4379;59.744;18.206;2023-07-31T23:39:39;6.75;;;4.70;;
8683;SDS011;4379;59.744;18.206;2023-07-31T23:42:07;5.85;;;3.95;;
8683;SDS011;4379;59.744;18.206;2023-07-31T23:44:34;4.38;;;3.97;;
8683;SDS011;4379;59.744;18.206;2023-07-31T23:47:02;6.50;;;4.72;;
8683;SDS011;4379;59.744;18.206;2023-07-31T23:49:29;7.97;;;4.50;;
8683;SDS011;4379;59.744;18.206;2023-07-31T23:51:57;11.40;;;5.03;;
8683;SDS011;4379;59.744;18.206;2023-07-31T23:54:24;9.27;;;4.30;;
8683;SDS011;4379;59.744;18.206;2023-07-31T23:56:52;5.10;;;4.47;;
8683;SDS011;4379;59.744;18.206;2023-07-31T23:59:21;4.35;;;3.95;;
